sensor_id;sensor_type;location;lat;lon;timestamp;P1;durP1;ratioP1;P2;durP2;ratioP2
49860;SDS011;35761;48.826;9.238;2022-11-15T00:02:39;10.23;;;4.75;;
49860;SDS011;35761;48.826;9.238;2022-11-15T00:05:26;8.65;;;4.60;;
49860;SDS011;35761;48.826;9.238;2022-11-15T00:08:13;12.57;;;4.90;;
49860;SDS011;35761;48.826;9.238;2022-11-15T00:11:02;9.43;;;4.22;;
49860;SDS011;35761;48.826;9.238;2022-11-15T00:13:50;11.48;;;5.22;;
49860;SDS011;35761;48.826;9.238;2022-11-15T00:16:37;7.60;;;4.50;;
49860;SDS011;35761;48.826;9.238;2022-11-15T00:19:23;11.65;;;5.15;;
49860;SDS011;35761;48.826;9.238;2022-11-15T00:22:11;9.73;;;4.63;;
49860;SDS011;35761;48.826;9.238;2022-11-15T00:24:58;13.43;;;4.57;;
49860;SDS011;35761;48.826;9.238;2022-11-15T00:27:46;10.25;;;4.20;;
49860;SDS011;35761;48.826;9.238;2022-11-15T00:30:33;9.65;;;4.63;;
49860;SDS011;35761;48.826;9.238;2022-11-15T00:33:20;8.80;;;3.47;;
49860;SDS011;35761;48.826;9.238;2022-11-15T00:36:09;10.88;;;4.38;;
49860;SDS011;35761;48.826;9.238;2022-11-15T00:38:56;7.90;;;4.22;;
49860;SDS011;35761;48.826;9.238;2022-11-15T00:41:43;16.67;;;4.50;;
49860;SDS011;35761;48.826;9.238;2022-11-15T00:44:31;8.63;;;4.15;;
49860;SDS011;35761;48.826;9.238;2022-11-15T00:47:18;11.18;;;4.07;;
49860;SDS011;35761;48.826;9.238;2022-11-15T00:50:05;8.68;;;4.18;;
49860;SDS011;35761;48.826;9.238;2022-11-15T00:52:59;11.20;;;4.47;;
49860;SDS011;35761;48.826;9.238;2022-11-15T00:55:46;11.15;;;4.65;;
49860;SDS011;35761;48.826;9.238;2022-11-15T00:58:33;7.25;;;4.32;;
49860;SDS011;35761;48.826;9.238;2022-11-15T01:01:21;9.15;;;4.10;;
49860;SDS011;35761;48.826;9.238;2022-11-15T01:04:08;9.70;;;5.68;;
49860;SDS011;35761;48.826;9.238;2022-11-15T01:06:55;8.10;;;3.97;;
49860;SDS011;35761;48.826;9.238;2022-11-15T01:09:42;9.98;;;4.20;;
49860;SDS011;35761;48.826;9.238;2022-11-15T01:12:29;10.23;;;5.00;;
49860;SDS011;35761;48.826;9.238;2022-11-15T01:15:17;12.70;;;4.90;;
49860;SDS011;35761;48.826;9.238;2022-11-15T01:18:05;14.88;;;6.13;;
49860;SDS011;35761;48.826;9.238;2022-11-15T01:20:52;10.60;;;4.90;;
49860;SDS011;35761;48.826;9.238;2022-11-15T01:23:39;10.13;;;5.00;;
49860;SDS011;35761;48.826;9.238;2022-11-15T01:26:26;9.65;;;4.80;;
49860;SDS011;35761;48.826;9.238;2022-11-15T01:29:14;11.07;;;4.88;;
49860;SDS011;35761;48.826;9.238;2022-11-15T01:32:01;9.18;;;5.00;;
49860;SDS011;35761;48.826;9.238;2022-11-15T01:34:49;10.23;;;5.38;;
49860;SDS011;35761;48.826;9.238;2022-11-15T01:37:36;11.60;;;4.97;;
49860;SDS011;35761;48.826;9.238;2022-11-15T01:40:23;9.07;;;4.20;;
49860;SDS011;35761;48.826;9.238;2022-11-15T01:43:19;11.10;;;4.57;;
49860;SDS011;35761;48.826;9.238;2022-11-15T01:46:15;7.22;;;4.00;;
49860;SDS011;35761;48.826;9.238;2022-11-15T01:49:14;9.38;;;4.05;;
49860;SDS011;35761;48.826;9.238;2022-11-15T01:52:06;8.27;;;4.30;;
49860;SDS011;35761;48.826;9.238;2022-11-15T01:54:58;9.23;;;4.20;;
49860;SDS011;35761;48.826;9.238;2022-11-15T01:57:52;10.35;;;4.55;;
49860;SDS011;35761;48.826;9.238;2022-11-15T02:00:43;11.00;;;4.90;;
49860;SDS011;35761;48.826;9.238;2022-11-15T02:03:31;17.15;;;5.47;;
49860;SDS011;35761;48.826;9.238;2022-11-15T02:06:27;11.80;;;5.05;;
49860;SDS011;35761;48.826;9.238;2022-11-15T02:09:16;14.68;;;5.10;;
49860;SDS011;35761;48.826;9.238;2022-11-15T02:12:04;12.15;;;5.20;;
49860;SDS011;35761;48.826;9.238;2022-11-15T02:14:53;8.95;;;5.20;;
49860;SDS011;35761;48.826;9.238;2022-11-15T02:17:54;10.52;;;5.35;;
49860;SDS011;35761;48.826;9.238;2022-11-15T02:20:55;9.07;;;4.80;;
49860;SDS011;35761;48.826;9.238;2022-11-15T02:28:02;10.02;;;5.40;;
49860;SDS011;35761;48.826;9.238;2022-11-15T02:31:05;11.65;;;4.50;;
49860;SDS011;35761;48.826;9.238;2022-11-15T02:33:59;9.45;;;4.60;;
49860;SDS011;35761;48.826;9.238;2022-11-15T02:36:59;9.80;;;4.20;;
49860;SDS011;35761;48.826;9.238;2022-11-15T02:39:54;7.45;;;4.22;;
49860;SDS011;35761;48.826;9.238;2022-11-15T02:42:51;10.80;;;4.47;;
49860;SDS011;35761;48.826;9.238;2022-11-15T02:46:02;10.45;;;4.55;;
49860;SDS011;35761;48.826;9.238;2022-11-15T02:48:54;10.30;;;4.60;;
49860;SDS011;35761;48.826;9.238;2022-11-15T02:51:42;11.23;;;4.22;;
49860;SDS011;35761;48.826;9.238;2022-11-15T02:54:33;8.80;;;4.25;;
49860;SDS011;35761;48.826;9.238;2022-11-15T02:57:23;10.93;;;4.43;;
49860;SDS011;35761;48.826;9.238;2022-11-15T03:00:25;11.68;;;4.45;;
49860;SDS011;35761;48.826;9.238;2022-11-15T03:03:27;9.45;;;4.55;;
49860;SDS011;35761;48.826;9.238;2022-11-15T03:06:32;7.75;;;3.70;;
49860;SDS011;35761;48.826;9.238;2022-11-15T03:09:28;8.80;;;4.75;;
49860;SDS011;35761;48.826;9.238;2022-11-15T03:12:22;8.85;;;4.70;;
49860;SDS011;35761;48.826;9.238;2022-11-15T03:15:16;9.55;;;4.20;;
49860;SDS011;35761;48.826;9.238;2022-11-15T03:18:12;8.93;;;4.53;;
49860;SDS011;35761;48.826;9.238;2022-11-15T03:21:08;8.32;;;4.57;;
49860;SDS011;35761;48.826;9.238;2022-11-15T03:23:58;8.18;;;4.22;;
49860;SDS011;35761;48.826;9.238;2022-11-15T03:26:50;14.20;;;4.20;;
49860;SDS011;35761;48.826;9.238;2022-11-15T03:29:39;7.00;;;3.92;;
49860;SDS011;35761;48.826;9.238;2022-11-15T03:32:31;9.95;;;5.55;;
49860;SDS011;35761;48.826;9.238;2022-11-15T03:35:23;9.20;;;5.30;;
49860;SDS011;35761;48.826;9.238;2022-11-15T03:38:14;12.70;;;5.90;;
49860;SDS011;35761;48.826;9.238;2022-11-15T03:41:07;14.38;;;5.40;;
49860;SDS011;35761;48.826;9.238;2022-11-15T03:44:04;15.30;;;6.40;;
49860;SDS011;35761;48.826;9.238;2022-11-15T03:46:59;12.10;;;6.43;;
49860;SDS011;35761;48.826;9.238;2022-11-15T03:49:50;14.45;;;6.63;;
49860;SDS011;35761;48.826;9.238;2022-11-15T03:52:42;14.80;;;6.68;;
49860;SDS011;35761;48.826;9.238;2022-11-15T03:55:34;11.43;;;6.18;;
49860;SDS011;35761;48.826;9.238;2022-11-15T03:58:21;11.80;;;5.70;;
49860;SDS011;35761;48.826;9.238;2022-11-15T04:01:08;10.07;;;5.68;;
49860;SDS011;35761;48.826;9.238;2022-11-15T04:03:55;15.30;;;5.38;;
49860;SDS011;35761;48.826;9.238;2022-11-15T04:06:42;10.90;;;5.70;;
49860;SDS011;35761;48.826;9.238;2022-11-15T04:09:29;12.68;;;5.93;;
49860;SDS011;35761;48.826;9.238;2022-11-15T04:12:18;13.30;;;6.47;;
49860;SDS011;35761;48.826;9.238;2022-11-15T04:15:16;12.30;;;6.30;;
49860;SDS011;35761;48.826;9.238;2022-11-15T04:18:06;13.30;;;6.28;;
49860;SDS011;35761;48.826;9.238;2022-11-15T04:20:53;14.35;;;6.97;;
49860;SDS011;35761;48.826;9.238;2022-11-15T04:24:06;13.88;;;7.18;;
49860;SDS011;35761;48.826;9.238;2022-11-15T04:26:58;18.63;;;7.10;;
49860;SDS011;35761;48.826;9.238;2022-11-15T04:29:47;18.85;;;11.02;;
49860;SDS011;35761;48.826;9.238;2022-11-15T04:32:34;16.45;;;7.82;;
49860;SDS011;35761;48.826;9.238;2022-11-15T04:35:20;15.82;;;7.82;;
49860;SDS011;35761;48.826;9.238;2022-11-15T04:38:08;15.00;;;6.97;;
49860;SDS011;35761;48.826;9.238;2022-11-15T04:40:57;12.75;;;6.57;;
49860;SDS011;35761;48.826;9.238;2022-11-15T04:43:43;11.27;;;6.53;;
49860;SDS011;35761;48.826;9.238;2022-11-15T04:46:31;13.38;;;6.85;;
49860;SDS011;35761;48.826;9.238;2022-11-15T04:49:19;21.20;;;11.10;;
49860;SDS011;35761;48.826;9.238;2022-11-15T04:52:06;20.40;;;12.27;;
49860;SDS011;35761;48.826;9.238;2022-11-15T04:54:53;16.48;;;6.03;;
49860;SDS011;35761;48.826;9.238;2022-11-15T04:57:40;16.98;;;7.03;;
49860;SDS011;35761;48.826;9.238;2022-11-15T05:00:29;12.35;;;5.35;;
49860;SDS011;35761;48.826;9.238;2022-11-15T05:03:17;14.43;;;6.40;;
49860;SDS011;35761;48.826;9.238;2022-11-15T05:06:22;9.57;;;4.93;;
49860;SDS011;35761;48.826;9.238;2022-11-15T05:09:09;11.90;;;5.68;;
49860;SDS011;35761;48.826;9.238;2022-11-15T05:11:58;10.75;;;5.55;;
49860;SDS011;35761;48.826;9.238;2022-11-15T05:14:45;10.05;;;5.40;;
49860;SDS011;35761;48.826;9.238;2022-11-15T05:17:32;12.68;;;5.50;;
49860;SDS011;35761;48.826;9.238;2022-11-15T05:20:21;10.05;;;4.65;;
49860;SDS011;35761;48.826;9.238;2022-11-15T05:23:07;12.38;;;5.40;;
49860;SDS011;35761;48.826;9.238;2022-11-15T05:25:58;12.48;;;4.82;;
49860;SDS011;35761;48.826;9.238;2022-11-15T05:28:53;12.77;;;5.80;;
49860;SDS011;35761;48.826;9.238;2022-11-15T05:31:40;9.00;;;4.95;;
49860;SDS011;35761;48.826;9.238;2022-11-15T05:34:28;9.60;;;5.22;;
49860;SDS011;35761;48.826;9.238;2022-11-15T05:37:16;10.13;;;5.03;;
49860;SDS011;35761;48.826;9.238;2022-11-15T05:40:04;10.20;;;5.07;;
49860;SDS011;35761;48.826;9.238;2022-11-15T05:42:52;14.85;;;5.70;;
49860;SDS011;35761;48.826;9.238;2022-11-15T05:45:39;14.32;;;4.97;;
49860;SDS011;35761;48.826;9.238;2022-11-15T05:48:26;12.30;;;5.28;;
49860;SDS011;35761;48.826;9.238;2022-11-15T05:51:14;10.32;;;5.25;;
49860;SDS011;35761;48.826;9.238;2022-11-15T05:54:03;12.00;;;6.03;;
49860;SDS011;35761;48.826;9.238;2022-11-15T05:56:50;11.70;;;5.90;;
49860;SDS011;35761;48.826;9.238;2022-11-15T05:59:38;10.27;;;5.60;;
49860;SDS011;35761;48.826;9.238;2022-11-15T06:02:26;14.93;;;6.05;;
49860;SDS011;35761;48.826;9.238;2022-11-15T06:05:13;11.75;;;5.72;;
49860;SDS011;35761;48.826;9.238;2022-11-15T06:08:00;11.38;;;6.15;;
49860;SDS011;35761;48.826;9.238;2022-11-15T06:10:49;13.68;;;6.43;;
49860;SDS011;35761;48.826;9.238;2022-11-15T06:13:35;11.85;;;5.65;;
49860;SDS011;35761;48.826;9.238;2022-11-15T06:16:23;13.40;;;5.85;;
49860;SDS011;35761;48.826;9.238;2022-11-15T06:19:09;12.75;;;6.18;;
49860;SDS011;35761;48.826;9.238;2022-11-15T06:21:56;11.02;;;5.85;;
49860;SDS011;35761;48.826;9.238;2022-11-15T06:24:43;12.30;;;6.43;;
49860;SDS011;35761;48.826;9.238;2022-11-15T06:27:32;10.73;;;5.80;;
49860;SDS011;35761;48.826;9.238;2022-11-15T06:30:19;10.55;;;5.03;;
49860;SDS011;35761;48.826;9.238;2022-11-15T06:33:06;13.75;;;5.53;;
49860;SDS011;35761;48.826;9.238;2022-11-15T06:35:54;10.40;;;5.05;;
49860;SDS011;35761;48.826;9.238;2022-11-15T06:38:41;9.18;;;4.70;;
49860;SDS011;35761;48.826;9.238;2022-11-15T06:41:28;7.57;;;4.13;;
49860;SDS011;35761;48.826;9.238;2022-11-15T06:44:16;14.23;;;4.85;;
49860;SDS011;35761;48.826;9.238;2022-11-15T06:47:03;7.68;;;4.75;;
49860;SDS011;35761;48.826;9.238;2022-11-15T06:49:50;13.88;;;5.43;;
49860;SDS011;35761;48.826;9.238;2022-11-15T06:52:37;10.48;;;4.18;;
49860;SDS011;35761;48.826;9.238;2022-11-15T06:55:25;7.88;;;3.60;;
49860;SDS011;35761;48.826;9.238;2022-11-15T06:58:12;9.05;;;4.85;;
49860;SDS011;35761;48.826;9.238;2022-11-15T07:01:01;8.70;;;4.05;;
49860;SDS011;35761;48.826;9.238;2022-11-15T07:03:50;9.85;;;4.13;;
49860;SDS011;35761;48.826;9.238;2022-11-15T07:06:37;16.88;;;8.77;;
49860;SDS011;35761;48.826;9.238;2022-11-15T07:09:24;22.20;;;12.18;;
49860;SDS011;35761;48.826;9.238;2022-11-15T07:12:11;8.95;;;4.20;;
49860;SDS011;35761;48.826;9.238;2022-11-15T07:14:59;9.68;;;4.30;;
49860;SDS011;35761;48.826;9.238;2022-11-15T07:17:47;8.18;;;4.25;;
49860;SDS011;35761;48.826;9.238;2022-11-15T07:20:34;8.90;;;4.68;;
49860;SDS011;35761;48.826;9.238;2022-11-15T07:23:21;11.60;;;4.43;;
49860;SDS011;35761;48.826;9.238;2022-11-15T07:26:08;7.95;;;3.60;;
49860;SDS011;35761;48.826;9.238;2022-11-15T07:28:56;9.60;;;3.92;;
49860;SDS011;35761;48.826;9.238;2022-11-15T07:31:43;7.53;;;4.00;;
49860;SDS011;35761;48.826;9.238;2022-11-15T07:34:31;8.65;;;4.00;;
49860;SDS011;35761;48.826;9.238;2022-11-15T07:37:18;9.13;;;4.32;;
49860;SDS011;35761;48.826;9.238;2022-11-15T07:40:06;10.30;;;4.80;;
49860;SDS011;35761;48.826;9.238;2022-11-15T07:42:58;7.47;;;4.45;;
49860;SDS011;35761;48.826;9.238;2022-11-15T07:45:46;8.90;;;4.00;;
49860;SDS011;35761;48.826;9.238;2022-11-15T07:48:33;9.68;;;4.70;;
49860;SDS011;35761;48.826;9.238;2022-11-15T07:51:30;9.38;;;4.45;;
49860;SDS011;35761;48.826;9.238;2022-11-15T07:54:17;7.43;;;3.95;;
49860;SDS011;35761;48.826;9.238;2022-11-15T07:57:04;9.25;;;4.22;;
49860;SDS011;35761;48.826;9.238;2022-11-15T07:59:53;12.45;;;3.90;;
49860;SDS011;35761;48.826;9.238;2022-11-15T08:02:41;8.52;;;3.63;;
49860;SDS011;35761;48.826;9.238;2022-11-15T08:05:29;9.60;;;3.65;;
49860;SDS011;35761;48.826;9.238;2022-11-15T08:08:17;9.63;;;3.70;;
49860;SDS011;35761;48.826;9.238;2022-11-15T08:11:04;6.93;;;3.80;;
49860;SDS011;35761;48.826;9.238;2022-11-15T08:13:51;8.35;;;3.67;;
49860;SDS011;35761;48.826;9.238;2022-11-15T08:16:38;14.32;;;4.57;;
49860;SDS011;35761;48.826;9.238;2022-11-15T08:19:25;7.40;;;3.60;;
49860;SDS011;35761;48.826;9.238;2022-11-15T08:22:12;9.32;;;3.97;;
49860;SDS011;35761;48.826;9.238;2022-11-15T08:25:00;11.10;;;4.38;;
49860;SDS011;35761;48.826;9.238;2022-11-15T08:27:50;6.35;;;3.83;;
49860;SDS011;35761;48.826;9.238;2022-11-15T08:30:39;5.80;;;3.88;;
49860;SDS011;35761;48.826;9.238;2022-11-15T08:33:30;9.13;;;4.18;;
49860;SDS011;35761;48.826;9.238;2022-11-15T08:36:19;13.80;;;4.78;;
49860;SDS011;35761;48.826;9.238;2022-11-15T08:39:08;9.23;;;4.63;;
49860;SDS011;35761;48.826;9.238;2022-11-15T08:41:58;9.00;;;4.68;;
49860;SDS011;35761;48.826;9.238;2022-11-15T08:44:45;13.05;;;5.00;;
49860;SDS011;35761;48.826;9.238;2022-11-15T08:47:32;13.68;;;5.38;;
49860;SDS011;35761;48.826;9.238;2022-11-15T08:50:19;11.07;;;4.68;;
49860;SDS011;35761;48.826;9.238;2022-11-15T08:53:06;12.82;;;4.38;;
49860;SDS011;35761;48.826;9.238;2022-11-15T08:55:54;10.65;;;4.30;;
49860;SDS011;35761;48.826;9.238;2022-11-15T08:58:43;12.80;;;4.63;;
49860;SDS011;35761;48.826;9.238;2022-11-15T09:01:30;12.18;;;4.88;;
49860;SDS011;35761;48.826;9.238;2022-11-15T09:04:17;9.13;;;4.15;;
49860;SDS011;35761;48.826;9.238;2022-11-15T09:07:04;13.05;;;4.50;;
49860;SDS011;35761;48.826;9.238;2022-11-15T09:09:52;11.63;;;5.65;;
49860;SDS011;35761;48.826;9.238;2022-11-15T09:12:39;7.75;;;4.35;;
49860;SDS011;35761;48.826;9.238;2022-11-15T09:15:27;9.27;;;4.30;;
49860;SDS011;35761;48.826;9.238;2022-11-15T09:18:16;9.52;;;4.38;;
49860;SDS011;35761;48.826;9.238;2022-11-15T09:21:08;12.70;;;3.95;;
49860;SDS011;35761;48.826;9.238;2022-11-15T09:23:55;7.57;;;3.40;;
49860;SDS011;35761;48.826;9.238;2022-11-15T09:26:43;9.48;;;3.35;;
49860;SDS011;35761;48.826;9.238;2022-11-15T09:29:30;8.82;;;3.53;;
49860;SDS011;35761;48.826;9.238;2022-11-15T09:32:18;8.45;;;3.20;;
49860;SDS011;35761;48.826;9.238;2022-11-15T09:35:07;4.63;;;2.80;;
49860;SDS011;35761;48.826;9.238;2022-11-15T09:37:54;5.95;;;3.03;;
49860;SDS011;35761;48.826;9.238;2022-11-15T09:40:40;6.35;;;2.97;;
49860;SDS011;35761;48.826;9.238;2022-11-15T09:43:32;5.55;;;2.40;;
49860;SDS011;35761;48.826;9.238;2022-11-15T09:46:31;9.73;;;3.30;;
49860;SDS011;35761;48.826;9.238;2022-11-15T09:49:19;6.43;;;2.72;;
49860;SDS011;35761;48.826;9.238;2022-11-15T09:52:10;5.43;;;2.65;;
49860;SDS011;35761;48.826;9.238;2022-11-15T09:54:39;7.60;;;2.90;;
49860;SDS011;35761;48.826;9.238;2022-11-15T09:57:21;7.90;;;2.67;;
49860;SDS011;35761;48.826;9.238;2022-11-15T10:00:02;9.65;;;2.50;;
49860;SDS011;35761;48.826;9.238;2022-11-15T10:03:02;7.68;;;2.60;;
49860;SDS011;35761;48.826;9.238;2022-11-15T10:05:41;6.85;;;2.90;;
49860;SDS011;35761;48.826;9.238;2022-11-15T10:08:15;6.82;;;2.92;;
49860;SDS011;35761;48.826;9.238;2022-11-15T10:11:00;5.07;;;2.60;;
49860;SDS011;35761;48.826;9.238;2022-11-15T10:13:52;7.55;;;2.20;;
49860;SDS011;35761;48.826;9.238;2022-11-15T10:16:28;6.93;;;2.70;;
49860;SDS011;35761;48.826;9.238;2022-11-15T10:19:26;6.97;;;2.53;;
49860;SDS011;35761;48.826;9.238;2022-11-15T10:22:12;4.72;;;2.50;;
49860;SDS011;35761;48.826;9.238;2022-11-15T10:24:57;10.52;;;2.67;;
49860;SDS011;35761;48.826;9.238;2022-11-15T10:27:39;4.40;;;2.15;;
49860;SDS011;35761;48.826;9.238;2022-11-15T10:30:10;5.75;;;2.78;;
49860;SDS011;35761;48.826;9.238;2022-11-15T10:32:41;10.98;;;3.42;;
49860;SDS011;35761;48.826;9.238;2022-11-15T10:35:19;9.00;;;3.17;;
49860;SDS011;35761;48.826;9.238;2022-11-15T10:37:52;3.83;;;2.45;;
49860;SDS011;35761;48.826;9.238;2022-11-15T10:40:34;6.82;;;2.38;;
49860;SDS011;35761;48.826;9.238;2022-11-15T10:43:05;5.22;;;2.50;;
49860;SDS011;35761;48.826;9.238;2022-11-15T10:45:43;9.95;;;2.53;;
49860;SDS011;35761;48.826;9.238;2022-11-15T10:48:23;5.40;;;2.53;;
49860;SDS011;35761;48.826;9.238;2022-11-15T10:50:52;7.85;;;2.83;;
49860;SDS011;35761;48.826;9.238;2022-11-15T10:53:25;5.20;;;2.42;;
49860;SDS011;35761;48.826;9.238;2022-11-15T10:56:00;3.80;;;2.15;;
49860;SDS011;35761;48.826;9.238;2022-11-15T10:58:36;3.55;;;2.10;;
49860;SDS011;35761;48.826;9.238;2022-11-15T11:01:10;5.53;;;2.22;;
49860;SDS011;35761;48.826;9.238;2022-11-15T11:03:43;4.13;;;2.30;;
49860;SDS011;35761;48.826;9.238;2022-11-15T11:06:13;5.45;;;2.22;;
49860;SDS011;35761;48.826;9.238;2022-11-15T11:08:55;5.90;;;1.90;;
49860;SDS011;35761;48.826;9.238;2022-11-15T11:11:43;5.88;;;2.20;;
49860;SDS011;35761;48.826;9.238;2022-11-15T11:14:17;7.05;;;2.92;;
49860;SDS011;35761;48.826;9.238;2022-11-15T11:16:49;5.45;;;2.67;;
49860;SDS011;35761;48.826;9.238;2022-11-15T11:19:34;5.80;;;2.38;;
49860;SDS011;35761;48.826;9.238;2022-11-15T11:22:17;8.52;;;2.70;;
49860;SDS011;35761;48.826;9.238;2022-11-15T11:24:55;5.97;;;2.63;;
49860;SDS011;35761;48.826;9.238;2022-11-15T11:27:36;5.97;;;2.45;;
49860;SDS011;35761;48.826;9.238;2022-11-15T11:30:33;10.50;;;2.80;;
49860;SDS011;35761;48.826;9.238;2022-11-15T11:33:16;6.93;;;2.90;;
49860;SDS011;35761;48.826;9.238;2022-11-15T11:35:50;9.00;;;2.80;;
49860;SDS011;35761;48.826;9.238;2022-11-15T11:38:34;6.35;;;2.75;;
49860;SDS011;35761;48.826;9.238;2022-11-15T11:41:20;8.27;;;2.90;;
49860;SDS011;35761;48.826;9.238;2022-11-15T11:44:07;7.57;;;2.78;;
49860;SDS011;35761;48.826;9.238;2022-11-15T11:46:54;6.63;;;2.63;;
49860;SDS011;35761;48.826;9.238;2022-11-15T11:49:33;7.25;;;3.15;;
49860;SDS011;35761;48.826;9.238;2022-11-15T11:52:09;8.30;;;2.80;;
49860;SDS011;35761;48.826;9.238;2022-11-15T11:54:48;6.03;;;2.80;;
49860;SDS011;35761;48.826;9.238;2022-11-15T11:57:31;7.65;;;2.90;;
49860;SDS011;35761;48.826;9.238;2022-11-15T12:00:13;9.80;;;4.30;;
49860;SDS011;35761;48.826;9.238;2022-11-15T12:02:47;8.18;;;3.33;;
49860;SDS011;35761;48.826;9.238;2022-11-15T12:05:30;5.63;;;2.80;;
49860;SDS011;35761;48.826;9.238;2022-11-15T12:08:09;10.85;;;3.10;;
49860;SDS011;35761;48.826;9.238;2022-11-15T12:10:58;10.98;;;3.05;;
49860;SDS011;35761;48.826;9.238;2022-11-15T12:13:36;11.55;;;2.75;;
49860;SDS011;35761;48.826;9.238;2022-11-15T12:16:07;17.58;;;2.95;;
49860;SDS011;35761;48.826;9.238;2022-11-15T12:18:42;9.40;;;2.85;;
49860;SDS011;35761;48.826;9.238;2022-11-15T12:21:16;8.32;;;2.85;;
49860;SDS011;35761;48.826;9.238;2022-11-15T12:23:55;7.20;;;2.55;;
49860;SDS011;35761;48.826;9.238;2022-11-15T12:26:31;8.20;;;2.80;;
49860;SDS011;35761;48.826;9.238;2022-11-15T12:29:06;6.32;;;2.30;;
49860;SDS011;35761;48.826;9.238;2022-11-15T12:31:43;13.43;;;3.45;;
49860;SDS011;35761;48.826;9.238;2022-11-15T12:34:29;6.88;;;2.65;;
49860;SDS011;35761;48.826;9.238;2022-11-15T12:40:22;7.40;;;2.67;;
49860;SDS011;35761;48.826;9.238;2022-11-15T12:46:20;5.15;;;2.53;;
49860;SDS011;35761;48.826;9.238;2022-11-15T12:49:08;12.80;;;5.22;;
49860;SDS011;35761;48.826;9.238;2022-11-15T12:57:40;8.55;;;3.08;;
49860;SDS011;35761;48.826;9.238;2022-11-15T13:03:17;7.82;;;2.47;;
49860;SDS011;35761;48.826;9.238;2022-11-15T13:06:05;12.95;;;2.95;;
49860;SDS011;35761;48.826;9.238;2022-11-15T13:08:38;9.30;;;3.00;;
49860;SDS011;35761;48.826;9.238;2022-11-15T13:20:20;8.70;;;3.15;;
49860;SDS011;35761;48.826;9.238;2022-11-15T13:22:52;4.90;;;2.28;;
49860;SDS011;35761;48.826;9.238;2022-11-15T13:28:39;6.07;;;2.35;;
49860;SDS011;35761;48.826;9.238;2022-11-15T13:31:25;4.55;;;2.17;;
49860;SDS011;35761;48.826;9.238;2022-11-15T13:34:03;9.73;;;3.03;;
49860;SDS011;35761;48.826;9.238;2022-11-15T13:37:13;6.63;;;2.25;;
49860;SDS011;35761;48.826;9.238;2022-11-15T13:40:09;10.52;;;2.42;;
49860;SDS011;35761;48.826;9.238;2022-11-15T13:42:48;7.68;;;3.75;;
49860;SDS011;35761;48.826;9.238;2022-11-15T13:45:17;8.05;;;2.40;;
49860;SDS011;35761;48.826;9.238;2022-11-15T13:47:50;9.85;;;2.33;;
49860;SDS011;35761;48.826;9.238;2022-11-15T13:50:24;7.07;;;2.42;;
49860;SDS011;35761;48.826;9.238;2022-11-15T13:53:02;5.22;;;2.55;;
49860;SDS011;35761;48.826;9.238;2022-11-15T13:55:32;5.47;;;2.60;;
49860;SDS011;35761;48.826;9.238;2022-11-15T13:58:01;5.10;;;2.67;;
49860;SDS011;35761;48.826;9.238;2022-11-15T14:00:34;5.72;;;2.30;;
49860;SDS011;35761;48.826;9.238;2022-11-15T14:03:07;13.88;;;3.92;;
49860;SDS011;35761;48.826;9.238;2022-11-15T14:05:44;10.00;;;3.28;;
49860;SDS011;35761;48.826;9.238;2022-11-15T14:08:22;9.43;;;2.65;;
49860;SDS011;35761;48.826;9.238;2022-11-15T14:11:07;5.88;;;2.78;;
49860;SDS011;35761;48.826;9.238;2022-11-15T14:13:42;9.45;;;2.33;;
49860;SDS011;35761;48.826;9.238;2022-11-15T14:16:39;3.95;;;2.00;;
49860;SDS011;35761;48.826;9.238;2022-11-15T14:19:10;11.10;;;2.47;;
49860;SDS011;35761;48.826;9.238;2022-11-15T14:27:42;7.10;;;2.65;;
49860;SDS011;35761;48.826;9.238;2022-11-15T14:30:13;8.80;;;2.83;;
49860;SDS011;35761;48.826;9.238;2022-11-15T14:32:44;3.65;;;2.15;;
49860;SDS011;35761;48.826;9.238;2022-11-15T14:35:17;12.75;;;3.30;;
49860;SDS011;35761;48.826;9.238;2022-11-15T14:37:52;11.60;;;3.08;;
49860;SDS011;35761;48.826;9.238;2022-11-15T14:40:22;8.73;;;3.40;;
49860;SDS011;35761;48.826;9.238;2022-11-15T14:42:52;6.25;;;2.97;;
49860;SDS011;35761;48.826;9.238;2022-11-15T14:45:21;5.43;;;2.97;;
49860;SDS011;35761;48.826;9.238;2022-11-15T14:47:54;5.20;;;2.80;;
49860;SDS011;35761;48.826;9.238;2022-11-15T14:50:23;10.55;;;6.88;;
49860;SDS011;35761;48.826;9.238;2022-11-15T14:52:51;12.23;;;4.90;;
49860;SDS011;35761;48.826;9.238;2022-11-15T14:55:21;10.60;;;5.63;;
49860;SDS011;35761;48.826;9.238;2022-11-15T14:57:53;9.60;;;4.93;;
49860;SDS011;35761;48.826;9.238;2022-11-15T15:00:22;10.20;;;3.70;;
49860;SDS011;35761;48.826;9.238;2022-11-15T15:03:00;6.70;;;3.38;;
49860;SDS011;35761;48.826;9.238;2022-11-15T15:05:33;15.07;;;4.53;;
49860;SDS011;35761;48.826;9.238;2022-11-15T15:08:05;10.32;;;3.38;;
49860;SDS011;35761;48.826;9.238;2022-11-15T15:10:35;10.68;;;3.35;;
49860;SDS011;35761;48.826;9.238;2022-11-15T15:13:18;10.43;;;3.58;;
49860;SDS011;35761;48.826;9.238;2022-11-15T15:15:49;7.72;;;3.60;;
49860;SDS011;35761;48.826;9.238;2022-11-15T15:18:22;11.93;;;3.63;;
49860;SDS011;35761;48.826;9.238;2022-11-15T15:20:54;11.55;;;3.60;;
49860;SDS011;35761;48.826;9.238;2022-11-15T15:23:26;6.07;;;3.55;;
49860;SDS011;35761;48.826;9.238;2022-11-15T15:25:57;8.85;;;3.47;;
49860;SDS011;35761;48.826;9.238;2022-11-15T15:31:03;14.90;;;4.28;;
49860;SDS011;35761;48.826;9.238;2022-11-15T15:33:34;10.07;;;4.47;;
49860;SDS011;35761;48.826;9.238;2022-11-15T15:36:03;16.90;;;4.80;;
49860;SDS011;35761;48.826;9.238;2022-11-15T15:38:31;11.82;;;4.95;;
49860;SDS011;35761;48.826;9.238;2022-11-15T15:41:00;11.65;;;4.93;;
49860;SDS011;35761;48.826;9.238;2022-11-15T15:43:30;11.57;;;4.88;;
49860;SDS011;35761;48.826;9.238;2022-11-15T15:45:59;10.70;;;4.53;;
49860;SDS011;35761;48.826;9.238;2022-11-15T15:48:28;11.57;;;4.78;;
49860;SDS011;35761;48.826;9.238;2022-11-15T15:50:57;11.85;;;4.85;;
49860;SDS011;35761;48.826;9.238;2022-11-15T15:53:25;10.80;;;4.90;;
49860;SDS011;35761;48.826;9.238;2022-11-15T15:55:54;21.33;;;4.65;;
49860;SDS011;35761;48.826;9.238;2022-11-15T15:58:22;12.55;;;5.90;;
49860;SDS011;35761;48.826;9.238;2022-11-15T16:00:51;16.58;;;5.40;;
49860;SDS011;35761;48.826;9.238;2022-11-15T16:03:21;18.00;;;5.55;;
49860;SDS011;35761;48.826;9.238;2022-11-15T16:05:50;15.13;;;5.15;;
49860;SDS011;35761;48.826;9.238;2022-11-15T16:08:19;12.32;;;5.15;;
49860;SDS011;35761;48.826;9.238;2022-11-15T16:10:49;11.13;;;5.22;;
49860;SDS011;35761;48.826;9.238;2022-11-15T16:13:18;14.07;;;5.50;;
49860;SDS011;35761;48.826;9.238;2022-11-15T16:15:47;21.52;;;11.77;;
49860;SDS011;35761;48.826;9.238;2022-11-15T16:18:21;12.98;;;5.70;;
49860;SDS011;35761;48.826;9.238;2022-11-15T16:20:49;15.45;;;5.45;;
49860;SDS011;35761;48.826;9.238;2022-11-15T16:23:22;13.20;;;5.82;;
49860;SDS011;35761;48.826;9.238;2022-11-15T16:25:51;16.92;;;6.63;;
49860;SDS011;35761;48.826;9.238;2022-11-15T16:28:23;15.93;;;6.25;;
49860;SDS011;35761;48.826;9.238;2022-11-15T16:31:03;17.00;;;6.20;;
49860;SDS011;35761;48.826;9.238;2022-11-15T16:33:36;12.10;;;5.45;;
49860;SDS011;35761;48.826;9.238;2022-11-15T16:36:10;22.08;;;9.52;;
49860;SDS011;35761;48.826;9.238;2022-11-15T16:38:54;19.40;;;8.05;;
49860;SDS011;35761;48.826;9.238;2022-11-15T16:41:22;18.30;;;7.32;;
49860;SDS011;35761;48.826;9.238;2022-11-15T16:43:51;14.00;;;6.15;;
49860;SDS011;35761;48.826;9.238;2022-11-15T16:46:20;11.98;;;6.00;;
49860;SDS011;35761;48.826;9.238;2022-11-15T16:48:52;18.63;;;5.53;;
49860;SDS011;35761;48.826;9.238;2022-11-15T16:51:21;12.30;;;6.30;;
49860;SDS011;35761;48.826;9.238;2022-11-15T16:53:50;9.60;;;5.30;;
49860;SDS011;35761;48.826;9.238;2022-11-15T16:56:20;9.35;;;4.90;;
49860;SDS011;35761;48.826;9.238;2022-11-15T16:58:52;11.68;;;5.38;;
49860;SDS011;35761;48.826;9.238;2022-11-15T17:01:25;11.55;;;4.20;;